createdAt,value
2023-04-16T00:00:09.468Z,57.99
2023-04-16T00:01:12.391Z,57.96
2023-04-16T00:02:14.990Z,57.93
2023-04-16T00:03:17.137Z,57.99
2023-04-16T00:04:19.237Z,58.38
2023-04-16T00:05:21.115Z,58.00
2023-04-16T00:06:23.409Z,57.99
2023-04-16T00:07:25.237Z,57.83
2023-04-16T00:08:26.995Z,58.15
2023-04-16T00:09:28.861Z,57.71
2023-04-16T00:10:30.668Z,57.94
2023-04-16T00:11:32.378Z,57.83
2023-04-16T00:12:34.141Z,57.90
2023-04-16T00:13:35.865Z,57.64
2023-04-16T00:14:37.710Z,58.28
2023-04-16T00:15:39.431Z,57.63
2023-04-16T00:16:41.174Z,57.46
2023-04-16T00:17:42.943Z,57.87
2023-04-16T00:18:44.708Z,57.82
2023-04-16T00:19:46.699Z,56.83
2023-04-16T00:20:48.898Z,57.35
2023-04-16T00:21:51.114Z,57.93
2023-04-16T00:22:52.855Z,58.29
2023-04-16T00:23:54.682Z,59.32
2023-04-16T00:24:56.566Z,58.64
2023-04-16T00:26:00.211Z,59.16
2023-04-16T00:27:02.206Z,58.63
2023-04-16T00:28:05.657Z,59.10
2023-04-16T00:29:07.504Z,58.87
2023-04-16T00:30:09.815Z,58.81
2023-04-16T00:31:11.595Z,58.50
2023-04-16T00:32:13.466Z,58.01
2023-04-16T00:33:15.942Z,58.76
2023-04-16T00:34:17.681Z,58.68
2023-04-16T00:35:19.573Z,58.68
2023-04-16T00:36:21.399Z,58.31
2023-04-16T00:37:24.926Z,58.94
2023-04-16T00:38:30.536Z,58.89
2023-04-16T00:39:32.228Z,58.09
2023-04-16T00:40:33.995Z,57.41
2023-04-16T00:41:35.804Z,57.01
2023-04-16T00:42:38.264Z,56.88
2023-04-16T00:43:40.023Z,56.84
2023-04-16T00:44:41.721Z,57.07
2023-04-16T00:45:43.521Z,57.26
2023-04-16T00:46:46.167Z,56.96
2023-04-16T00:47:47.997Z,57.07
2023-04-16T00:48:51.748Z,56.96
2023-04-16T00:49:53.571Z,57.40
2023-04-16T00:50:56.084Z,56.79
2023-04-16T00:51:57.917Z,57.27
2023-04-16T00:52:59.700Z,57.14
2023-04-16T00:54:02.384Z,57.05
2023-04-16T00:55:06.756Z,57.47
2023-04-16T00:56:09.935Z,57.26
2023-04-16T00:57:14.837Z,57.05
2023-04-16T00:58:17.174Z,57.16
2023-04-16T00:59:18.897Z,57.11
2023-04-16T01:00:21.473Z,57.41
2023-04-16T01:01:23.259Z,57.28
2023-04-16T01:02:25.660Z,57.27
2023-04-16T01:03:37.573Z,57.18
2023-04-16T01:04:39.513Z,58.07
2023-04-16T01:05:41.289Z,58.34
2023-04-16T01:06:43.156Z,58.14
2023-04-16T01:07:44.916Z,58.07
2023-04-16T01:08:48.097Z,58.59
2023-04-16T01:09:49.780Z,58.19
2023-04-16T01:10:51.482Z,57.86
2023-04-16T01:11:53.199Z,58.32
2023-04-16T01:12:54.919Z,58.76
2023-04-16T01:13:56.638Z,58.48
2023-04-16T01:14:58.539Z,58.20
2023-04-16T01:16:01.586Z,58.24
2023-04-16T01:17:04.255Z,59.11
2023-04-16T01:18:19.324Z,58.93
2023-04-16T01:19:21.072Z,58.70
2023-04-16T01:20:22.872Z,57.38
2023-04-16T01:21:24.571Z,58.53
2023-04-16T01:22:27.867Z,58.70
2023-04-16T01:23:29.821Z,58.87
2023-04-16T01:24:32.225Z,58.80
2023-04-16T01:25:33.956Z,58.19
2023-04-16T01:26:35.732Z,57.83
2023-04-16T01:27:37.762Z,58.67
2023-04-16T01:28:39.498Z,58.64
2023-04-16T01:29:41.350Z,58.58
2023-04-16T01:30:43.106Z,58.47
2023-04-16T01:31:46.821Z,57.93
2023-04-16T01:32:48.816Z,58.32
2023-04-16T01:33:50.742Z,58.31
2023-04-16T01:34:52.436Z,58.43
2023-04-16T01:35:54.132Z,58.40
2023-04-16T01:36:55.905Z,57.35
2023-04-16T01:37:57.597Z,57.69
2023-04-16T01:38:59.334Z,57.61
2023-04-16T01:40:01.116Z,57.77
2023-04-16T01:41:02.880Z,57.57
2023-04-16T01:42:04.640Z,57.91
2023-04-16T01:43:06.350Z,58.50
2023-04-16T01:44:08.075Z,58.16
2023-04-16T01:45:10.116Z,58.43
2023-04-16T01:46:20.580Z,58.12
2023-04-16T01:47:22.546Z,58.43
2023-04-16T01:48:24.263Z,57.69
2023-04-16T01:49:26.054Z,57.87
2023-04-16T01:50:28.505Z,57.73
2023-04-16T01:51:30.324Z,57.52
2023-04-16T01:52:32.121Z,57.79
2023-04-16T01:53:36.538Z,57.19
2023-04-16T01:54:38.851Z,57.40
2023-04-16T01:55:40.534Z,57.74
2023-04-16T01:56:42.274Z,57.75
2023-04-16T01:57:43.979Z,57.68
2023-04-16T01:58:48.524Z,57.91
2023-04-16T01:59:50.254Z,58.35
2023-04-16T02:00:51.967Z,57.87
2023-04-16T02:01:54.210Z,57.53
2023-04-16T02:02:56.289Z,57.47
2023-04-16T02:03:58.474Z,57.74
2023-04-16T02:05:00.258Z,57.34
2023-04-16T02:06:02.096Z,57.33
2023-04-16T02:07:04.662Z,57.09
2023-04-16T02:08:06.519Z,57.07
2023-04-16T02:09:08.591Z,56.75
2023-04-16T02:10:10.503Z,56.51
2023-04-16T02:11:12.248Z,56.52
2023-04-16T02:12:14.127Z,56.27
2023-04-16T02:13:16.758Z,56.96
2023-04-16T02:14:18.632Z,57.06
2023-04-16T02:15:20.557Z,57.01
2023-04-16T02:16:22.336Z,57.51
2023-04-16T02:17:24.175Z,57.51
2023-04-16T02:18:25.965Z,57.97
2023-04-16T02:19:27.708Z,57.60
2023-04-16T02:20:29.457Z,57.70
2023-04-16T02:21:31.954Z,57.65
2023-04-16T02:22:33.746Z,57.78
2023-04-16T02:23:35.708Z,58.15
2023-04-16T02:24:37.437Z,58.27
2023-04-16T02:25:41.368Z,58.74
2023-04-16T02:26:43.175Z,58.73
2023-04-16T02:27:44.885Z,58.81
2023-04-16T02:28:46.580Z,58.73
2023-04-16T02:29:48.304Z,58.86
2023-04-16T02:30:50.034Z,58.94
2023-04-16T02:31:51.953Z,58.90
2023-04-16T02:32:53.709Z,58.23
2023-04-16T02:33:55.412Z,58.33
2023-04-16T02:34:57.284Z,58.37
2023-04-16T02:35:59.031Z,59.18
2023-04-16T02:37:00.963Z,59.09
2023-04-16T02:38:04.267Z,58.56
2023-04-16T02:39:06.057Z,59.33
2023-04-16T02:40:08.520Z,59.45
2023-04-16T02:41:10.235Z,59.14
2023-04-16T02:42:11.978Z,59.75
2023-04-16T02:43:13.703Z,59.81
2023-04-16T02:44:15.844Z,60.17
2023-04-16T02:45:17.618Z,60.08
2023-04-16T02:46:19.408Z,59.42
2023-04-16T02:47:21.205Z,59.75
2023-04-16T02:48:23.095Z,60.27
2023-04-16T02:49:24.842Z,60.17
2023-04-16T02:50:26.711Z,60.49
2023-04-16T02:51:29.235Z,60.63
2023-04-16T02:52:32.400Z,59.70
2023-04-16T02:53:34.679Z,60.07
2023-04-16T02:54:36.479Z,59.83
2023-04-16T02:55:38.141Z,59.61
2023-04-16T02:56:39.851Z,59.70
2023-04-16T02:57:42.716Z,60.17
2023-04-16T02:58:44.456Z,60.34
2023-04-16T02:59:46.183Z,60.10
2023-04-16T03:00:48.172Z,60.83
2023-04-16T03:01:50.091Z,61.00
2023-04-16T03:02:51.990Z,60.50
2023-04-16T03:03:53.831Z,60.66
2023-04-16T03:04:55.706Z,60.70
2023-04-16T03:05:57.448Z,61.49
2023-04-16T03:06:59.162Z,61.69
2023-04-16T03:08:01.157Z,60.93
2023-04-16T03:09:02.921Z,61.42
2023-04-16T03:10:05.647Z,60.84
2023-04-16T03:11:07.688Z,61.46
2023-04-16T03:12:09.360Z,61.26
2023-04-16T03:13:11.091Z,61.46
2023-04-16T03:14:12.782Z,61.46
2023-04-16T03:15:14.498Z,61.67
2023-04-16T03:16:16.488Z,61.76
2023-04-16T03:17:18.362Z,61.84
2023-04-16T03:18:20.119Z,61.80
2023-04-16T03:19:21.812Z,61.96
2023-04-16T03:20:23.999Z,61.75
2023-04-16T03:21:26.004Z,62.40
2023-04-16T03:22:27.731Z,62.83
2023-04-16T03:23:29.488Z,62.23
2023-04-16T03:24:31.289Z,62.01
2023-04-16T03:25:33.039Z,62.60
2023-04-16T03:26:34.781Z,62.19
2023-04-16T03:27:36.487Z,62.60
2023-04-16T03:28:38.192Z,62.26
2023-04-16T03:29:40.045Z,61.83
2023-04-16T03:30:41.772Z,62.23
2023-04-16T03:31:43.503Z,62.89
2023-04-16T03:32:45.300Z,62.79
2023-04-16T03:33:47.000Z,62.43
2023-04-16T03:34:48.726Z,62.30
2023-04-16T03:35:59.708Z,62.42
2023-04-16T03:37:01.659Z,62.94
2023-04-16T03:38:03.343Z,62.37
2023-04-16T03:39:05.071Z,62.49
2023-04-16T03:40:07.498Z,63.26
2023-04-16T03:41:09.194Z,63.47
2023-04-16T03:42:11.040Z,63.87
2023-04-16T03:43:12.744Z,63.73
2023-04-16T03:44:14.442Z,63.90
2023-04-16T03:45:16.355Z,63.91
2023-04-16T03:46:18.154Z,64.22
2023-04-16T03:47:23.127Z,63.58
2023-04-16T03:48:24.820Z,63.92
2023-04-16T03:49:26.564Z,63.20
2023-04-16T03:50:28.312Z,63.44
2023-04-16T03:51:30.022Z,63.88
2023-04-16T03:52:31.726Z,63.59
2023-04-16T03:53:33.442Z,62.83
2023-04-16T03:54:35.173Z,62.72
2023-04-16T03:55:36.869Z,62.13
2023-04-16T03:56:40.476Z,62.04
2023-04-16T03:57:42.238Z,61.69
2023-04-16T03:58:43.921Z,61.15
2023-04-16T03:59:45.640Z,61.72
2023-04-16T04:00:47.634Z,61.35
2023-04-16T04:01:49.491Z,61.51
2023-04-16T04:02:51.364Z,61.13
2023-04-16T04:03:53.335Z,60.89
2023-04-16T04:04:55.218Z,60.83
2023-04-16T04:05:57.098Z,60.97
2023-04-16T04:06:58.859Z,61.54
2023-04-16T04:08:00.637Z,60.36
2023-04-16T04:09:02.516Z,60.38
2023-04-16T04:10:04.517Z,59.82
2023-04-16T04:11:06.199Z,59.77
2023-04-16T04:12:08.118Z,59.87
2023-04-16T04:13:10.335Z,60.08
2023-04-16T04:14:12.225Z,60.13
2023-04-16T04:15:14.307Z,60.13
2023-04-16T04:16:16.333Z,60.64
2023-04-16T04:17:18.203Z,60.18
2023-04-16T04:18:19.914Z,59.85
2023-04-16T04:19:21.599Z,60.29
2023-04-16T04:20:23.654Z,59.71
2023-04-16T04:21:26.031Z,59.99
2023-04-16T04:22:27.735Z,60.69
2023-04-16T04:23:29.457Z,61.28
2023-04-16T04:24:31.180Z,60.66
2023-04-16T04:25:32.905Z,60.66
2023-04-16T04:26:34.675Z,60.69
2023-04-16T04:27:36.705Z,60.88
2023-04-16T04:28:38.434Z,60.53
2023-04-16T04:29:40.126Z,60.84
2023-04-16T04:30:42.158Z,60.66
2023-04-16T04:31:43.916Z,60.09
2023-04-16T04:32:45.746Z,60.02
2023-04-16T04:33:47.467Z,60.14
2023-04-16T04:34:49.215Z,60.03
2023-04-16T04:35:51.165Z,60.14
2023-04-16T04:36:52.888Z,59.25
2023-04-16T04:37:54.602Z,60.07
2023-04-16T04:38:56.448Z,59.79
2023-04-16T04:39:58.224Z,59.63
2023-04-16T04:41:00.416Z,59.56
2023-04-16T04:42:03.442Z,59.81
2023-04-16T04:43:05.228Z,59.87
2023-04-16T04:44:07.103Z,59.93
2023-04-16T04:45:09.698Z,60.24
2023-04-16T04:46:11.537Z,60.56
2023-04-16T04:47:13.999Z,61.40
2023-04-16T04:48:16.230Z,61.88
2023-04-16T04:49:17.963Z,61.44
2023-04-16T04:50:19.862Z,61.46
2023-04-16T04:51:21.593Z,60.39
2023-04-16T04:52:23.314Z,60.72
2023-04-16T04:53:25.039Z,60.66
2023-04-16T04:54:26.782Z,61.35
2023-04-16T04:55:28.496Z,61.95
2023-04-16T04:56:30.251Z,61.67
2023-04-16T04:57:31.994Z,62.55
2023-04-16T04:58:33.744Z,62.03
2023-04-16T04:59:35.458Z,63.35
2023-04-16T05:00:37.321Z,63.25
2023-04-16T05:01:39.190Z,63.01
2023-04-16T05:02:41.211Z,62.79
2023-04-16T05:03:43.076Z,63.23
2023-04-16T05:04:44.905Z,63.06
2023-04-16T05:05:46.997Z,62.78
2023-04-16T05:06:48.765Z,63.84
2023-04-16T05:07:50.696Z,62.91
2023-04-16T05:08:52.446Z,63.99
2023-04-16T05:09:54.242Z,63.59
2023-04-16T05:10:56.025Z,62.04
2023-04-16T05:11:57.847Z,63.19
2023-04-16T05:12:59.625Z,64.08
2023-04-16T05:14:01.307Z,63.40
2023-04-16T05:15:03.166Z,64.02
2023-04-16T05:16:05.202Z,63.31
2023-04-16T05:17:08.104Z,62.41
2023-04-16T05:18:10.015Z,63.01
2023-04-16T05:19:11.975Z,63.04
2023-04-16T05:20:13.904Z,63.20
2023-04-16T05:21:15.674Z,63.65
2023-04-16T05:22:19.079Z,63.80
2023-04-16T05:23:20.816Z,62.37
2023-04-16T05:24:22.777Z,61.82
2023-04-16T05:25:24.508Z,60.69
2023-04-16T05:26:26.274Z,61.29
2023-04-16T05:27:28.046Z,60.37
2023-04-16T05:28:30.819Z,61.07
2023-04-16T05:29:32.584Z,60.70
2023-04-16T05:30:34.363Z,60.11
2023-04-16T05:31:36.211Z,63.14
2023-04-16T05:32:39.739Z,61.76
2023-04-16T05:33:41.475Z,63.41
2023-04-16T05:34:43.282Z,64.22
2023-04-16T05:35:44.962Z,62.40
2023-04-16T05:36:47.039Z,62.99
2023-04-16T05:37:48.735Z,60.58
2023-04-16T05:38:50.674Z,60.84
2023-04-16T05:39:52.382Z,59.29
2023-04-16T05:40:54.174Z,59.54
2023-04-16T05:41:55.870Z,55.97
2023-04-16T05:42:57.634Z,58.67
2023-04-16T05:43:59.345Z,55.44
2023-04-16T05:45:04.338Z,57.31
2023-04-16T05:46:06.086Z,55.05
2023-04-16T05:47:09.502Z,53.07
2023-04-16T05:48:11.451Z,52.83
2023-04-16T05:49:13.192Z,49.79
2023-04-16T05:50:15.030Z,46.73
2023-04-16T05:51:16.743Z,46.76
2023-04-16T05:52:18.448Z,45.65
2023-04-16T05:53:20.247Z,47.29
2023-04-16T05:54:22.047Z,45.73
2023-04-16T05:55:23.786Z,44.68
2023-04-16T05:56:25.637Z,42.64
2023-04-16T05:57:28.851Z,42.68
2023-04-16T05:58:30.611Z,41.53
2023-04-16T05:59:32.329Z,42.55
2023-04-16T06:00:34.183Z,40.24
2023-04-16T06:01:36.083Z,39.68
2023-04-16T06:02:38.081Z,40.10
2023-04-16T06:03:39.878Z,39.08
2023-04-16T06:04:41.738Z,37.07
2023-04-16T06:05:43.572Z,36.14
2023-04-16T06:06:45.316Z,36.95
2023-04-16T06:07:47.105Z,35.48
2023-04-16T06:08:48.815Z,36.01
2023-04-16T06:09:50.525Z,35.37
2023-04-16T06:10:52.293Z,35.18
2023-04-16T06:11:54.063Z,34.02
2023-04-16T06:12:55.752Z,33.29
2023-04-16T06:13:57.446Z,33.61
2023-04-16T06:15:00.597Z,32.81
2023-04-16T06:16:02.376Z,33.85
2023-04-16T06:17:04.083Z,34.47
2023-04-16T06:18:08.682Z,33.95
2023-04-16T06:19:10.740Z,33.80
2023-04-16T06:20:13.094Z,33.73
2023-04-16T06:21:14.991Z,32.84
2023-04-16T06:22:16.803Z,32.33
2023-04-16T06:23:18.510Z,31.85
2023-04-16T06:24:20.247Z,32.15
2023-04-16T06:25:22.104Z,31.51
2023-04-16T06:26:23.891Z,32.43
2023-04-16T06:27:26.078Z,31.02
2023-04-16T06:28:27.781Z,31.98
2023-04-16T06:29:40.690Z,30.36
2023-04-16T06:30:44.639Z,30.63
2023-04-16T06:31:46.756Z,30.26
2023-04-16T06:32:49.255Z,30.79
2023-04-16T06:33:50.986Z,30.84
2023-04-16T06:34:52.696Z,31.59
2023-04-16T06:35:54.395Z,31.16
2023-04-16T06:36:56.087Z,30.50
2023-04-16T06:37:57.861Z,30.57
2023-04-16T06:38:59.523Z,29.67
2023-04-16T06:40:01.506Z,29.70
2023-04-16T06:41:03.891Z,29.34
2023-04-16T06:42:05.637Z,30.23
2023-04-16T06:43:07.395Z,29.26
2023-04-16T06:44:09.125Z,29.46
2023-04-16T06:45:11.724Z,28.83
2023-04-16T06:46:13.510Z,29.24
2023-04-16T06:47:15.866Z,29.12
2023-04-16T06:48:17.747Z,28.99
2023-04-16T06:49:19.454Z,30.16
2023-04-16T06:50:22.377Z,29.33
2023-04-16T06:51:24.094Z,28.28
2023-04-16T06:52:25.912Z,28.89
2023-04-16T06:53:27.625Z,27.93
2023-04-16T06:54:29.348Z,27.68
2023-04-16T06:55:33.010Z,28.12
2023-04-16T06:56:35.937Z,28.06
2023-04-16T06:57:37.850Z,28.85
2023-04-16T06:58:39.545Z,27.85
2023-04-16T06:59:41.292Z,27.48
2023-04-16T07:00:43.106Z,27.62
2023-04-16T07:01:45.163Z,27.31
2023-04-16T07:02:47.104Z,27.62
2023-04-16T07:03:51.877Z,28.52
2023-04-16T07:04:53.814Z,27.13
2023-04-16T07:05:55.681Z,27.08
2023-04-16T07:06:57.410Z,27.23
2023-04-16T07:07:59.535Z,26.56
2023-04-16T07:09:01.317Z,26.65
2023-04-16T07:10:03.085Z,26.22
2023-04-16T07:11:05.222Z,27.07
2023-04-16T07:12:07.409Z,25.84
2023-04-16T07:13:09.132Z,27.00
2023-04-16T07:14:11.029Z,26.42
2023-04-16T07:15:12.795Z,25.45
2023-04-16T07:16:14.700Z,25.31
2023-04-16T07:17:16.502Z,25.50
2023-04-16T07:18:19.289Z,25.21
2023-04-16T07:19:22.335Z,26.04
2023-04-16T07:20:24.209Z,24.78
2023-04-16T07:21:26.322Z,25.83
2023-04-16T07:22:28.038Z,25.58
2023-04-16T07:23:30.118Z,25.16
2023-04-16T07:24:32.451Z,25.55
2023-04-16T07:25:34.167Z,25.56
2023-04-16T07:26:35.986Z,24.91
2023-04-16T07:27:37.679Z,26.05
2023-04-16T07:28:39.505Z,24.21
2023-04-16T07:29:41.331Z,25.11
2023-04-16T07:30:43.606Z,25.40
2023-04-16T07:31:45.951Z,25.26
2023-04-16T07:32:47.765Z,24.68
2023-04-16T07:33:49.554Z,24.64
2023-04-16T07:34:51.614Z,24.78
2023-04-16T07:35:53.384Z,25.50
2023-04-16T07:36:55.127Z,24.50
2023-04-16T07:37:56.826Z,24.43
2023-04-16T07:38:58.581Z,23.43
2023-04-16T07:40:00.918Z,25.05
2023-04-16T07:41:02.703Z,25.56
2023-04-16T07:42:04.494Z,25.20
2023-04-16T07:43:06.213Z,24.80
2023-04-16T07:44:08.257Z,25.75
2023-04-16T07:45:10.353Z,25.22
2023-04-16T07:46:12.045Z,25.78
2023-04-16T07:47:13.822Z,25.98
2023-04-16T07:48:15.611Z,25.15
2023-04-16T07:49:17.406Z,26.58
2023-04-16T07:50:19.643Z,25.72
2023-04-16T07:51:21.369Z,25.36
2023-04-16T07:52:23.090Z,25.28
2023-04-16T07:53:24.795Z,25.80
2023-04-16T07:54:28.869Z,26.01
2023-04-16T07:55:30.823Z,25.69
2023-04-16T07:56:32.605Z,27.28
2023-04-16T07:57:34.475Z,26.99
2023-04-16T07:58:36.212Z,26.75
2023-04-16T07:59:37.908Z,26.35
2023-04-16T08:00:39.968Z,26.45
2023-04-16T08:01:41.835Z,26.33
2023-04-16T08:02:43.997Z,27.48
2023-04-16T08:03:46.094Z,27.27
2023-04-16T08:04:48.134Z,26.46
2023-04-16T08:05:49.938Z,27.10
2023-04-16T08:06:52.067Z,26.81
2023-04-16T08:07:53.812Z,27.53
2023-04-16T08:08:56.243Z,28.36
2023-04-16T08:09:57.993Z,29.68
2023-04-16T08:11:00.220Z,28.33
2023-04-16T08:12:02.836Z,27.85
2023-04-16T08:13:04.596Z,28.26
2023-04-16T08:14:06.376Z,29.41
2023-04-16T08:15:08.438Z,29.32
2023-04-16T08:16:10.336Z,30.35
2023-04-16T08:17:12.973Z,28.97
2023-04-16T08:18:15.844Z,28.57
2023-04-16T08:19:17.668Z,30.39
2023-04-16T08:20:19.674Z,30.02
2023-04-16T08:21:22.059Z,31.59
2023-04-16T08:22:23.782Z,31.92
2023-04-16T08:23:25.492Z,33.39
2023-04-16T08:24:27.177Z,33.67
2023-04-16T08:25:28.931Z,33.23
2023-04-16T08:26:30.694Z,34.58
2023-04-16T08:27:32.382Z,35.59
2023-04-16T08:28:34.208Z,35.64
2023-04-16T08:29:35.951Z,35.56
2023-04-16T08:30:37.674Z,35.79
2023-04-16T08:31:39.525Z,35.75
2023-04-16T08:32:41.513Z,36.63
2023-04-16T08:33:43.451Z,38.01
2023-04-16T08:34:45.305Z,39.02
2023-04-16T08:35:47.160Z,40.10
2023-04-16T08:36:48.889Z,41.39
2023-04-16T08:37:50.644Z,41.32
2023-04-16T08:38:52.468Z,42.27
2023-04-16T08:39:54.268Z,42.31
2023-04-16T08:41:00.981Z,42.83
2023-04-16T08:42:05.763Z,43.38
2023-04-16T08:43:12.473Z,43.84
2023-04-16T08:44:26.429Z,45.37
2023-04-16T08:45:28.471Z,44.42
2023-04-16T08:46:31.680Z,43.54
2023-04-16T08:47:37.087Z,43.97
2023-04-16T08:48:38.930Z,43.15
2023-04-16T08:49:47.920Z,41.88
2023-04-16T08:50:52.946Z,43.28
2023-04-16T08:51:57.419Z,44.29
2023-04-16T08:53:03.959Z,44.18
2023-04-16T08:54:09.544Z,41.30
2023-04-16T08:55:16.996Z,42.97
2023-04-16T08:56:21.611Z,42.61
2023-04-16T08:57:27.281Z,41.67
2023-04-16T08:58:34.800Z,40.76
2023-04-16T08:59:37.415Z,37.14
2023-04-16T09:00:41.337Z,37.37
2023-04-16T09:01:45.752Z,37.55
2023-04-16T09:02:47.828Z,34.67
2023-04-16T09:03:50.093Z,34.85
2023-04-16T09:04:53.889Z,33.72
2023-04-16T09:05:59.309Z,31.18
2023-04-16T09:07:03.954Z,33.64
2023-04-16T09:08:07.057Z,32.96
2023-04-16T09:09:09.531Z,33.95
2023-04-16T09:10:12.320Z,31.66
2023-04-16T09:11:14.617Z,31.59
2023-04-16T09:12:17.504Z,32.03
2023-04-16T09:13:20.731Z,30.97
2023-04-16T09:14:22.634Z,29.23
2023-04-16T09:15:28.148Z,27.42
2023-04-16T09:16:34.219Z,28.53
2023-04-16T09:17:36.308Z,29.66
2023-04-16T09:18:38.105Z,29.89
2023-04-16T09:19:39.803Z,29.42
2023-04-16T09:20:41.510Z,29.38
2023-04-16T09:21:47.018Z,29.75
2023-04-16T09:22:48.998Z,32.25
2023-04-16T09:23:53.028Z,30.63
2023-04-16T09:24:54.714Z,29.76
2023-04-16T09:25:59.401Z,30.19
2023-04-16T09:27:01.302Z,31.94
2023-04-16T09:28:03.361Z,31.07
2023-04-16T09:29:05.143Z,31.67
2023-04-16T09:30:27.716Z,31.58
2023-04-16T09:31:29.681Z,31.71
2023-04-16T09:32:31.463Z,30.70
2023-04-16T09:33:34.997Z,30.93
2023-04-16T09:34:59.182Z,30.68
2023-04-16T09:36:06.186Z,29.83
2023-04-16T09:37:17.940Z,29.88
2023-04-16T09:38:20.544Z,29.92
2023-04-16T09:39:23.400Z,31.12
2023-04-16T09:40:27.504Z,29.79
2023-04-16T09:41:36.200Z,31.03
2023-04-16T09:42:38.087Z,30.35
2023-04-16T09:43:39.801Z,32.07
2023-04-16T09:44:41.488Z,31.33
2023-04-16T09:45:51.188Z,33.64
2023-04-16T09:46:53.019Z,30.96
2023-04-16T09:48:03.999Z,31.06
2023-04-16T09:49:10.651Z,31.23
2023-04-16T09:50:18.896Z,30.65
2023-04-16T09:51:20.940Z,30.67
2023-04-16T09:52:23.638Z,32.04
2023-04-16T09:53:29.604Z,31.21
2023-04-16T09:54:31.355Z,30.86
2023-04-16T09:55:33.274Z,30.22
2023-04-16T09:56:43.674Z,29.44
2023-04-16T09:57:45.521Z,29.15
2023-04-16T09:58:47.380Z,28.37
2023-04-16T09:59:53.480Z,29.94
2023-04-16T10:01:11.290Z,28.25
2023-04-16T10:02:15.319Z,28.91
2023-04-16T10:03:25.636Z,27.94
2023-04-16T10:04:28.493Z,28.17
2023-04-16T10:05:30.203Z,29.74
2023-04-16T10:06:31.947Z,30.28
2023-04-16T10:07:35.632Z,29.54
2023-04-16T10:08:37.347Z,29.40
2023-04-16T10:09:42.410Z,29.72
2023-04-16T10:10:45.128Z,28.51
2023-04-16T10:11:47.406Z,28.57
2023-04-16T10:12:49.118Z,28.41
2023-04-16T10:13:51.581Z,30.01
2023-04-16T10:14:53.474Z,29.72
2023-04-16T10:15:57.045Z,29.79
2023-04-16T10:16:59.658Z,29.19
2023-04-16T10:18:02.437Z,29.54
2023-04-16T10:19:04.921Z,30.83
2023-04-16T10:20:07.893Z,31.50
2023-04-16T10:21:12.809Z,29.70
2023-04-16T10:22:14.661Z,30.05
2023-04-16T10:23:16.457Z,29.45
2023-04-16T10:24:18.407Z,32.53
2023-04-16T10:25:20.496Z,28.87
2023-04-16T10:26:22.555Z,27.96
2023-04-16T10:27:27.119Z,29.53
2023-04-16T10:28:29.584Z,28.08
2023-04-16T10:29:32.409Z,27.25
2023-04-16T10:30:34.528Z,27.95
2023-04-16T10:31:38.809Z,27.43
2023-04-16T10:32:41.625Z,27.13
2023-04-16T10:33:44.547Z,28.56
2023-04-16T10:34:48.068Z,29.23
2023-04-16T10:36:07.263Z,28.95
2023-04-16T10:37:09.771Z,30.51
2023-04-16T10:38:28.491Z,31.20
2023-04-16T10:39:30.430Z,31.39
2023-04-16T10:40:32.186Z,34.58
2023-04-16T10:41:33.993Z,32.10
2023-04-16T10:42:35.770Z,30.56
2023-04-16T10:43:41.681Z,29.70
2023-04-16T10:44:45.389Z,29.86
2023-04-16T10:45:48.284Z,30.54
2023-04-16T10:46:50.106Z,30.39
2023-04-16T10:47:51.974Z,30.60
2023-04-16T10:48:55.181Z,30.85
2023-04-16T10:49:58.379Z,29.72
2023-04-16T10:51:01.145Z,30.03
2023-04-16T10:52:17.384Z,29.96
2023-04-16T10:53:20.356Z,30.95
2023-04-16T10:54:28.006Z,31.60
2023-04-16T10:55:29.708Z,31.28
2023-04-16T10:56:36.145Z,30.76
2023-04-16T10:57:37.883Z,31.53
2023-04-16T10:58:39.664Z,31.64
2023-04-16T10:59:43.671Z,32.05
2023-04-16T11:00:52.341Z,31.43
2023-04-16T11:01:56.628Z,30.27
2023-04-16T11:02:58.697Z,29.46
2023-04-16T11:04:02.413Z,31.51
2023-04-16T11:05:04.751Z,29.17
2023-04-16T11:06:17.685Z,29.88
2023-04-16T11:07:21.050Z,31.13
2023-04-16T11:08:24.236Z,32.31
2023-04-16T11:09:59.753Z,33.42
2023-04-16T11:11:04.953Z,33.99
2023-04-16T11:12:09.761Z,35.49
2023-04-16T11:13:13.112Z,35.59
2023-04-16T11:14:15.530Z,34.52
2023-04-16T11:15:21.497Z,35.21
2023-04-16T11:16:25.878Z,34.76
2023-04-16T11:17:53.730Z,35.06
2023-04-16T11:19:07.533Z,34.05
2023-04-16T11:20:22.242Z,34.50
2023-04-16T11:21:24.671Z,33.19
2023-04-16T11:22:27.374Z,33.55
2023-04-16T11:23:29.185Z,34.33
2023-04-16T11:24:33.957Z,33.90
2023-04-16T11:25:35.671Z,33.68
2023-04-16T11:26:37.384Z,34.56
2023-04-16T11:27:39.139Z,34.38
2023-04-16T11:28:40.923Z,34.17
2023-04-16T11:29:44.588Z,34.98
2023-04-16T11:30:47.540Z,35.02
2023-04-16T11:31:53.777Z,35.44
2023-04-16T11:32:55.839Z,37.04
2023-04-16T11:33:57.922Z,37.01
2023-04-16T11:35:03.883Z,37.27
2023-04-16T11:36:06.208Z,37.58
2023-04-16T11:37:07.986Z,38.10
2023-04-16T11:38:09.702Z,38.45
2023-04-16T11:39:11.791Z,39.21
2023-04-16T11:40:14.072Z,40.32
2023-04-16T11:41:22.062Z,39.83
2023-04-16T11:42:23.997Z,40.79
2023-04-16T11:43:26.776Z,40.58
2023-04-16T11:44:29.396Z,40.18
2023-04-16T11:45:31.307Z,40.34
2023-04-16T11:46:42.806Z,40.37
2023-04-16T11:47:56.915Z,39.88
2023-04-16T11:48:58.766Z,40.67
2023-04-16T11:50:33.514Z,41.14
2023-04-16T11:51:40.640Z,41.86
2023-04-16T11:52:42.371Z,41.54
2023-04-16T11:53:53.203Z,42.16
2023-04-16T11:54:55.469Z,42.85
2023-04-16T11:55:57.356Z,43.24
2023-04-16T11:56:59.152Z,43.88
2023-04-16T11:58:13.024Z,44.15
2023-04-16T11:59:19.096Z,44.18
2023-04-16T12:00:23.080Z,43.29
2023-04-16T12:01:26.773Z,43.84
2023-04-16T12:02:38.740Z,44.32
2023-04-16T12:03:47.155Z,44.51
2023-04-16T12:04:49.166Z,45.37
2023-04-16T12:05:50.948Z,49.22
2023-04-16T12:07:14.572Z,50.25
2023-04-16T12:08:29.181Z,52.71
2023-04-16T12:09:30.928Z,52.49
2023-04-16T12:10:37.934Z,51.57
2023-04-16T12:11:43.069Z,52.58
2023-04-16T12:12:47.915Z,54.81
2023-04-16T12:14:11.944Z,56.71
2023-04-16T12:15:13.771Z,58.28
2023-04-16T12:16:21.487Z,60.16
2023-04-16T12:17:24.550Z,57.87
2023-04-16T12:18:29.630Z,58.78
2023-04-16T12:19:31.382Z,58.07
2023-04-16T12:20:43.838Z,60.02
2023-04-16T12:21:48.226Z,61.79
2023-04-16T12:22:50.025Z,60.89
2023-04-16T12:23:53.971Z,61.23
2023-04-16T12:24:58.494Z,61.60
2023-04-16T12:26:10.741Z,62.43
2023-04-16T12:27:13.100Z,61.23
2023-04-16T12:28:16.597Z,59.80
2023-04-16T12:29:22.879Z,61.19
2023-04-16T12:30:31.070Z,60.45
2023-04-16T12:31:39.195Z,61.25
2023-04-16T12:32:42.554Z,60.69
2023-04-16T12:33:44.292Z,59.17
2023-04-16T12:34:52.100Z,60.30
2023-04-16T12:35:54.176Z,60.96
2023-04-16T12:37:10.692Z,63.58
2023-04-16T12:38:15.168Z,60.83
2023-04-16T12:39:17.333Z,63.06
2023-04-16T12:40:19.023Z,61.72
2023-04-16T12:41:20.726Z,62.56
2023-04-16T12:42:22.576Z,63.68
2023-04-16T12:43:24.516Z,62.96
2023-04-16T12:44:27.965Z,60.61
2023-04-16T12:45:29.781Z,62.47
2023-04-16T12:46:31.525Z,56.48
2023-04-16T12:47:33.427Z,56.31
2023-04-16T12:48:35.262Z,57.70
2023-04-16T12:49:37.605Z,61.28
2023-04-16T12:50:39.896Z,56.95
2023-04-16T12:51:42.292Z,58.45
2023-04-16T12:52:44.150Z,57.59
2023-04-16T12:53:46.014Z,58.75
2023-04-16T12:54:47.746Z,57.03
2023-04-16T12:55:49.521Z,58.47
2023-04-16T12:56:51.238Z,59.31
2023-04-16T12:57:53.229Z,59.43
2023-04-16T12:58:55.118Z,59.41
2023-04-16T12:59:57.771Z,60.77
2023-04-16T13:01:00.022Z,60.77
2023-04-16T13:02:02.949Z,59.56
2023-04-16T13:03:06.952Z,60.92
2023-04-16T13:04:09.477Z,61.29
2023-04-16T13:05:13.200Z,58.18
2023-04-16T13:06:16.186Z,57.81
2023-04-16T13:07:18.642Z,58.25
2023-04-16T13:08:20.789Z,58.79
2023-04-16T13:09:22.555Z,55.18
2023-04-16T13:10:24.466Z,54.34
2023-04-16T13:11:29.204Z,54.26
2023-04-16T13:12:32.766Z,53.43
2023-04-16T13:13:37.078Z,53.78
2023-04-16T13:14:39.463Z,54.17
2023-04-16T13:15:42.409Z,53.87
2023-04-16T13:16:44.142Z,51.66
2023-04-16T13:17:46.284Z,54.56
2023-04-16T13:18:48.104Z,55.27
2023-04-16T13:19:49.871Z,55.06
2023-04-16T13:20:52.100Z,54.24
2023-04-16T13:21:54.152Z,52.03
2023-04-16T13:22:55.992Z,53.28
2023-04-16T13:23:57.760Z,53.88
2023-04-16T13:24:59.493Z,55.87
2023-04-16T13:26:02.587Z,55.10
2023-04-16T13:27:04.469Z,53.14
2023-04-16T13:28:06.640Z,53.88
2023-04-16T13:29:08.627Z,53.33
2023-04-16T13:30:11.205Z,51.27
2023-04-16T13:31:13.015Z,50.68